createdAt,value
2017-10-23T00:01:47.728Z,9.57
2017-10-23T00:04:15.240Z,9.30
2017-10-23T00:06:42.794Z,9.40
2017-10-23T00:09:10.591Z,9.17
2017-10-23T00:11:38.502Z,10.30
2017-10-23T00:14:07.470Z,9.50
2017-10-23T00:16:35.770Z,10.80
2017-10-23T00:19:03.455Z,10.17
2017-10-23T00:21:31.208Z,8.93
2017-10-23T00:23:59.236Z,9.80
2017-10-23T00:26:26.823Z,10.87
2017-10-23T00:28:54.364Z,10.00
2017-10-23T00:31:21.948Z,9.83
2017-10-23T00:33:49.448Z,8.80
2017-10-23T00:36:17.097Z,10.00
2017-10-23T00:38:44.620Z,10.23
2017-10-23T00:41:12.279Z,10.23
2017-10-23T00:43:39.772Z,11.57
2017-10-23T00:46:07.532Z,11.13
2017-10-23T00:48:35.111Z,11.90
2017-10-23T00:51:02.641Z,11.03
2017-10-23T00:53:30.236Z,11.73
2017-10-23T00:55:58.730Z,11.20
2017-10-23T00:58:26.243Z,10.30
2017-10-23T01:00:53.764Z,11.80
2017-10-23T01:03:21.290Z,10.90
2017-10-23T01:05:48.792Z,11.03
2017-10-23T01:08:16.347Z,12.10
2017-10-23T01:10:43.868Z,12.03
2017-10-23T01:13:12.836Z,10.67
2017-10-23T01:15:40.356Z,10.70
2017-10-23T01:18:07.960Z,11.90
2017-10-23T01:20:35.470Z,11.00
2017-10-23T01:23:03.112Z,10.87
2017-10-23T01:25:30.819Z,10.90
2017-10-23T01:27:58.362Z,11.00
2017-10-23T01:30:25.890Z,11.83
2017-10-23T01:32:53.613Z,11.20
2017-10-23T01:35:21.121Z,11.80
2017-10-23T01:37:48.839Z,12.70
2017-10-23T01:40:16.580Z,12.60
2017-10-23T01:42:44.117Z,9.73
2017-10-23T01:45:11.621Z,11.77
2017-10-23T01:47:39.188Z,11.40
2017-10-23T01:50:06.693Z,12.63
2017-10-23T01:52:35.170Z,10.40
2017-10-23T01:55:02.684Z,10.17
2017-10-23T01:57:30.536Z,11.33
2017-10-23T01:59:58.106Z,9.67
2017-10-23T02:02:26.399Z,12.20
2017-10-23T02:04:53.904Z,9.57
2017-10-23T02:07:21.549Z,10.97
2017-10-23T02:09:49.105Z,10.73
2017-10-23T02:12:16.656Z,10.47
2017-10-23T02:14:44.200Z,9.90
2017-10-23T02:17:12.508Z,10.80
2017-10-23T02:19:40.029Z,12.50
2017-10-23T02:22:08.628Z,12.83
2017-10-23T02:24:36.137Z,12.90
2017-10-23T02:27:03.921Z,14.60
2017-10-23T02:29:31.429Z,12.97
2017-10-23T02:31:59.165Z,12.30
2017-10-23T02:34:27.472Z,13.50
2017-10-23T02:36:54.981Z,14.43
2017-10-23T02:39:23.314Z,14.80
2017-10-23T02:41:50.949Z,16.70
2017-10-23T02:44:18.467Z,16.50
2017-10-23T02:46:46.270Z,16.07
2017-10-23T02:49:13.964Z,15.40
2017-10-23T02:51:41.771Z,17.57
2017-10-23T02:54:09.529Z,17.13
2017-10-23T02:56:37.072Z,16.97
2017-10-23T02:59:04.640Z,18.43
2017-10-23T03:01:32.184Z,18.20
2017-10-23T03:03:59.724Z,17.53
2017-10-23T03:06:27.244Z,16.50
2017-10-23T03:08:54.764Z,16.93
2017-10-23T03:11:22.303Z,17.60
2017-10-23T03:13:50.724Z,17.73
2017-10-23T03:16:18.263Z,16.87
2017-10-23T03:18:45.788Z,17.43
2017-10-23T03:21:13.492Z,17.23
2017-10-23T03:23:41.775Z,18.63
2017-10-23T03:26:09.282Z,18.97
2017-10-23T03:28:36.797Z,17.53
2017-10-23T03:31:05.362Z,17.80
2017-10-23T03:33:32.868Z,17.23
2017-10-23T03:36:00.376Z,17.80
2017-10-23T03:38:27.901Z,16.77
2017-10-23T03:40:55.431Z,16.80
2017-10-23T03:43:22.923Z,19.60
2017-10-23T03:45:50.438Z,17.87
2017-10-23T03:48:17.950Z,15.30
2017-10-23T03:50:45.649Z,16.60
2017-10-23T03:53:13.172Z,17.70
2017-10-23T03:55:40.824Z,17.33
2017-10-23T03:58:08.344Z,16.17
2017-10-23T04:00:35.928Z,16.53
2017-10-23T04:03:03.524Z,17.20
2017-10-23T04:05:31.040Z,13.97
2017-10-23T04:07:58.758Z,16.27
2017-10-23T04:10:26.514Z,17.60
2017-10-23T04:12:54.792Z,14.77
2017-10-23T04:15:23.193Z,15.80
2017-10-23T04:17:50.718Z,16.67
2017-10-23T04:20:18.221Z,14.87
2017-10-23T04:22:45.756Z,16.70
2017-10-23T04:25:14.293Z,15.40
2017-10-23T04:27:41.852Z,15.73
2017-10-23T04:30:09.397Z,15.80
2017-10-23T04:32:36.911Z,14.23
2017-10-23T04:35:04.446Z,16.30
2017-10-23T04:37:31.955Z,15.97
2017-10-23T04:39:59.560Z,15.90
2017-10-23T04:42:27.091Z,15.53
2017-10-23T04:44:54.611Z,13.70
2017-10-23T04:47:22.147Z,14.90
2017-10-23T04:49:50.424Z,15.47
2017-10-23T04:52:18.022Z,16.30
2017-10-23T04:54:46.380Z,15.97
2017-10-23T04:57:13.965Z,16.10
2017-10-23T04:59:41.528Z,14.57
2017-10-23T05:02:09.084Z,14.37
2017-10-23T05:04:36.613Z,15.07
2017-10-23T05:07:04.165Z,15.50
2017-10-23T05:09:31.692Z,14.90
2017-10-23T05:11:59.196Z,13.70
2017-10-23T05:14:26.717Z,14.07
2017-10-23T05:16:54.219Z,14.90
2017-10-23T05:19:21.753Z,15.50
2017-10-23T05:21:49.254Z,15.70
2017-10-23T05:24:17.653Z,13.00
2017-10-23T05:26:45.220Z,13.83
2017-10-23T05:29:12.736Z,13.17
2017-10-23T05:31:40.277Z,12.70
2017-10-23T05:34:07.815Z,14.07
2017-10-23T05:36:36.300Z,13.00
2017-10-23T05:39:05.064Z,14.50
2017-10-23T05:41:32.589Z,16.00
2017-10-23T05:44:00.150Z,17.00
2017-10-23T05:46:27.654Z,12.40
2017-10-23T05:48:55.211Z,16.00
2017-10-23T05:51:22.837Z,15.97
2017-10-23T05:53:50.413Z,18.07
2017-10-23T05:56:19.423Z,13.27
2017-10-23T05:58:47.884Z,15.73
2017-10-23T06:01:15.409Z,16.00
2017-10-23T06:03:42.997Z,15.50
2017-10-23T06:06:10.749Z,17.60
2017-10-23T06:08:38.265Z,18.57
2017-10-23T06:11:06.050Z,17.60
2017-10-23T06:13:33.560Z,17.87
2017-10-23T06:16:01.076Z,17.37
2017-10-23T06:18:28.599Z,18.67
2017-10-23T06:20:56.118Z,17.37
2017-10-23T06:23:23.684Z,16.80
2017-10-23T06:25:51.374Z,17.50
2017-10-23T06:28:18.873Z,19.83
2017-10-23T06:30:46.380Z,17.93
2017-10-23T06:33:14.649Z,18.00
2017-10-23T06:35:42.163Z,17.37
2017-10-23T06:38:09.852Z,19.17
2017-10-23T06:40:37.484Z,16.60
2017-10-23T06:43:05.053Z,17.77
2017-10-23T06:45:32.590Z,14.10
2017-10-23T06:48:00.293Z,16.93
2017-10-23T06:50:28.046Z,17.43
2017-10-23T06:52:55.588Z,18.03
2017-10-23T06:55:24.023Z,17.40
2017-10-23T06:57:52.321Z,16.50
2017-10-23T07:00:19.836Z,20.03
2017-10-23T07:02:47.496Z,17.33
2017-10-23T07:05:15.006Z,18.67
2017-10-23T07:07:42.529Z,18.80
2017-10-23T07:10:10.812Z,17.20
2017-10-23T07:12:38.488Z,17.10
2017-10-23T07:15:06.320Z,19.83
2017-10-23T07:17:33.841Z,17.63
2017-10-23T07:20:01.429Z,15.53
2017-10-23T07:22:28.968Z,17.33
2017-10-23T07:24:57.352Z,18.10
2017-10-23T07:27:24.998Z,19.13
2017-10-23T07:29:52.516Z,17.70
2017-10-23T07:32:20.032Z,17.40
2017-10-23T07:34:47.541Z,19.60
2017-10-23T07:37:15.057Z,15.57
2017-10-23T07:39:42.599Z,19.97
2017-10-23T07:42:10.096Z,19.10
2017-10-23T07:44:37.928Z,20.67
2017-10-23T07:47:05.462Z,20.00
2017-10-23T07:49:32.956Z,16.93
2017-10-23T07:52:00.577Z,18.87
2017-10-23T07:54:28.428Z,18.40
2017-10-23T07:56:55.937Z,18.53
2017-10-23T07:59:23.484Z,19.60
2017-10-23T08:01:50.993Z,17.87
2017-10-23T08:04:18.526Z,17.13
2017-10-23T08:06:46.033Z,15.33
2017-10-23T08:09:13.569Z,15.90
2017-10-23T08:11:41.071Z,17.10
2017-10-23T08:14:08.590Z,15.37
2017-10-23T08:16:36.125Z,15.13
2017-10-23T08:19:03.871Z,17.93
2017-10-23T08:21:31.384Z,13.60
2017-10-23T08:23:58.943Z,15.80
2017-10-23T08:26:26.534Z,15.13
2017-10-23T08:28:54.282Z,15.30
2017-10-23T08:31:21.780Z,14.50
2017-10-23T08:33:49.496Z,14.57
2017-10-23T08:36:17.007Z,13.83
2017-10-23T08:38:44.566Z,13.00
2017-10-23T08:41:13.136Z,17.33
2017-10-23T08:43:41.414Z,14.20
2017-10-23T08:46:09.004Z,13.97
2017-10-23T08:48:36.700Z,13.40
2017-10-23T08:51:04.634Z,13.97
2017-10-23T08:53:32.159Z,13.23
2017-10-23T08:55:59.904Z,13.13
2017-10-23T08:58:27.445Z,12.60
2017-10-23T09:00:54.963Z,12.10
2017-10-23T09:03:22.665Z,13.87
2017-10-23T09:05:50.196Z,13.47
2017-10-23T09:08:17.704Z,14.17
2017-10-23T09:10:45.216Z,13.27
2017-10-23T09:13:12.785Z,12.80
2017-10-23T09:15:40.341Z,13.30
2017-10-23T09:18:07.836Z,13.97
2017-10-23T09:20:35.344Z,14.03
2017-10-23T09:23:02.865Z,12.20
2017-10-23T09:25:31.124Z,12.47
2017-10-23T09:27:58.737Z,12.40
2017-10-23T09:30:26.268Z,13.43
2017-10-23T09:32:53.924Z,11.40
2017-10-23T09:35:21.459Z,12.63
2017-10-23T09:37:48.967Z,10.13
2017-10-23T09:40:16.464Z,10.13
2017-10-23T09:42:44.141Z,11.83
2017-10-23T09:45:13.160Z,11.37
2017-10-23T09:47:40.702Z,11.87
2017-10-23T09:50:08.325Z,11.80
2017-10-23T09:52:35.907Z,10.90
2017-10-23T09:55:03.415Z,10.77
2017-10-23T09:57:30.913Z,9.57
2017-10-23T09:59:58.519Z,10.57
2017-10-23T10:02:26.428Z,10.50
2017-10-23T10:04:54.012Z,9.10
2017-10-23T10:07:21.520Z,9.10
2017-10-23T10:09:49.065Z,10.17
2017-10-23T10:12:16.697Z,9.83
2017-10-23T10:14:44.200Z,10.30
2017-10-23T10:17:11.776Z,9.60
2017-10-23T10:19:39.276Z,11.00
2017-10-23T10:22:06.814Z,9.77
2017-10-23T10:24:34.676Z,10.10
2017-10-23T10:27:02.320Z,9.77
2017-10-23T10:29:30.190Z,9.93
2017-10-23T10:31:57.779Z,8.63
2017-10-23T10:34:25.422Z,8.90
2017-10-23T10:36:52.948Z,10.40
2017-10-23T10:39:20.456Z,10.20
2017-10-23T10:41:47.998Z,9.67
2017-10-23T10:44:15.528Z,10.47
2017-10-23T10:46:43.453Z,8.77
2017-10-23T10:49:10.978Z,10.60
2017-10-23T10:51:38.528Z,10.33
2017-10-23T10:54:06.055Z,11.63
2017-10-23T10:56:33.683Z,9.10
2017-10-23T10:59:01.203Z,11.23
2017-10-23T11:01:28.756Z,9.40
2017-10-23T11:03:56.626Z,7.70
2017-10-23T11:06:25.664Z,8.80
2017-10-23T11:08:53.399Z,9.00
2017-10-23T11:11:20.896Z,8.33
2017-10-23T11:13:48.443Z,7.90
2017-10-23T11:16:16.992Z,8.30
2017-10-23T11:18:44.512Z,8.57
2017-10-23T11:21:12.201Z,7.27
2017-10-23T11:23:40.384Z,6.90
2017-10-23T11:26:08.038Z,6.47
2017-10-23T11:28:35.591Z,6.83
2017-10-23T11:31:03.088Z,7.60
2017-10-23T11:33:31.649Z,7.53
2017-10-23T11:35:59.151Z,6.03
2017-10-23T11:38:26.696Z,6.43
2017-10-23T11:40:54.986Z,6.07
2017-10-23T11:43:23.248Z,4.83
2017-10-23T11:45:50.736Z,4.00
2017-10-23T11:48:18.245Z,3.90
2017-10-23T11:50:45.779Z,3.73
2017-10-23T11:53:13.276Z,3.23
2017-10-23T11:55:41.569Z,4.40
2017-10-23T11:58:09.074Z,3.20
2017-10-23T12:00:36.746Z,3.60
2017-10-23T12:03:04.250Z,3.00
2017-10-23T12:05:31.827Z,2.73
2017-10-23T12:07:59.318Z,1.93
2017-10-23T12:10:26.896Z,2.17
2017-10-23T12:12:54.411Z,2.27
2017-10-23T12:15:21.964Z,1.97
2017-10-23T12:17:49.547Z,2.23
2017-10-23T12:20:17.070Z,2.20
2017-10-23T12:22:44.757Z,3.50
2017-10-23T12:25:12.274Z,1.63
2017-10-23T12:27:39.780Z,1.80
2017-10-23T12:30:07.312Z,2.17
2017-10-23T12:32:35.188Z,1.97
2017-10-23T12:35:02.717Z,1.60
2017-10-23T12:37:30.244Z,1.63
2017-10-23T12:39:58.532Z,1.50
2017-10-23T12:42:26.136Z,1.83
2017-10-23T12:44:53.809Z,1.83
2017-10-23T12:47:21.347Z,1.60
2017-10-23T12:49:48.920Z,1.53
2017-10-23T12:52:16.460Z,1.80
2017-10-23T12:54:44.165Z,2.43
2017-10-23T12:57:11.665Z,2.83
2017-10-23T12:59:40.284Z,3.33
2017-10-23T13:02:07.797Z,5.10
2017-10-23T13:04:35.507Z,6.60
2017-10-23T13:07:03.127Z,7.23
2017-10-23T13:09:30.729Z,4.63
2017-10-23T13:11:58.363Z,3.87
2017-10-23T13:14:25.940Z,2.87
2017-10-23T13:16:53.452Z,3.20
2017-10-23T13:19:21.123Z,3.30
2017-10-23T13:21:48.639Z,3.37
2017-10-23T13:24:16.131Z,2.80
2017-10-23T13:26:43.636Z,3.93
2017-10-23T13:29:11.305Z,4.20
2017-10-23T13:31:38.831Z,4.03
2017-10-23T13:34:06.392Z,3.43
2017-10-23T13:36:33.904Z,3.80
2017-10-23T13:39:01.407Z,3.67
2017-10-23T13:41:28.912Z,3.40
2017-10-23T13:43:57.259Z,3.47
2017-10-23T13:46:24.754Z,3.83
2017-10-23T13:48:52.485Z,3.37
2017-10-23T13:51:19.984Z,3.30
2017-10-23T13:53:48.300Z,5.00
2017-10-23T13:56:15.808Z,6.27
2017-10-23T13:58:43.529Z,5.80
2017-10-23T14:01:11.048Z,5.87
2017-10-23T14:03:38.758Z,5.90
2017-10-23T14:06:06.256Z,5.90
2017-10-23T14:08:33.759Z,4.93
2017-10-23T14:11:01.440Z,4.20
2017-10-23T14:13:28.975Z,5.17
2017-10-23T14:15:56.628Z,4.63
2017-10-23T14:18:24.125Z,6.67
2017-10-23T14:20:51.627Z,5.30
2017-10-23T14:23:19.329Z,4.83
2017-10-23T14:25:46.840Z,4.37
2017-10-23T14:28:14.397Z,4.37
2017-10-23T14:30:42.929Z,3.63
2017-10-23T14:33:10.708Z,4.33
2017-10-23T14:35:38.460Z,3.53
2017-10-23T14:38:05.975Z,5.40
2017-10-23T14:40:33.476Z,5.17
2017-10-23T14:43:00.972Z,3.90
2017-10-23T14:45:29.243Z,4.20
2017-10-23T14:47:56.747Z,4.30
2017-10-23T14:50:24.261Z,4.37
2017-10-23T14:52:52.841Z,4.33
2017-10-23T14:55:20.340Z,4.40
2017-10-23T14:57:47.844Z,3.87
2017-10-23T15:00:15.349Z,4.50
2017-10-23T15:02:42.844Z,4.47
2017-10-23T15:05:10.351Z,4.60
2017-10-23T15:07:37.847Z,4.23
2017-10-23T15:10:05.361Z,4.23
2017-10-23T15:12:32.865Z,4.33
2017-10-23T15:15:00.519Z,5.53
2017-10-23T15:17:28.288Z,5.40
2017-10-23T15:19:55.799Z,4.67
2017-10-23T15:22:24.059Z,4.90
2017-10-23T15:24:51.561Z,4.40
2017-10-23T15:27:19.055Z,4.50
2017-10-23T15:29:46.675Z,4.30
2017-10-23T15:32:14.270Z,4.23
2017-10-23T15:34:43.280Z,4.57
2017-10-23T15:37:10.781Z,4.83
2017-10-23T15:39:38.281Z,4.60
2017-10-23T15:42:05.928Z,4.53
2017-10-23T15:44:33.684Z,4.47
2017-10-23T15:47:01.184Z,5.37
2017-10-23T15:49:28.868Z,5.07
2017-10-23T15:51:56.398Z,4.53
2017-10-23T15:54:24.092Z,4.80
2017-10-23T15:56:51.595Z,4.27
2017-10-23T15:59:19.345Z,4.90
2017-10-23T16:01:47.500Z,12.27
2017-10-23T16:04:15.160Z,6.03
2017-10-23T16:06:42.673Z,5.80
2017-10-23T16:09:10.380Z,5.00
2017-10-23T16:11:37.887Z,6.07
2017-10-23T16:14:05.410Z,6.57
2017-10-23T16:16:33.093Z,6.50
2017-10-23T16:19:00.596Z,5.80
2017-10-23T16:21:28.108Z,7.00
2017-10-23T16:23:55.752Z,6.50
2017-10-23T16:26:23.300Z,6.87
2017-10-23T16:28:50.804Z,7.50
2017-10-23T16:31:19.080Z,7.70
2017-10-23T16:33:46.928Z,6.10
2017-10-23T16:36:14.423Z,8.03
2017-10-23T16:38:42.700Z,7.90
2017-10-23T16:41:10.400Z,29.47
2017-10-23T16:43:37.908Z,13.33
2017-10-23T16:46:05.588Z,9.67
2017-10-23T16:48:33.097Z,11.53
2017-10-23T16:51:00.608Z,17.03
2017-10-23T16:53:28.280Z,9.67
2017-10-23T16:55:55.780Z,16.33
2017-10-23T16:58:23.294Z,8.43
2017-10-23T17:00:50.985Z,10.37
2017-10-23T17:03:18.506Z,9.63
2017-10-23T17:05:45.996Z,8.50
2017-10-23T17:08:13.672Z,9.30
2017-10-23T17:10:41.164Z,10.70
2017-10-23T17:13:08.684Z,11.67
2017-10-23T17:15:37.848Z,10.93
2017-10-23T17:18:05.364Z,8.00
2017-10-23T17:20:32.864Z,10.27
2017-10-23T17:23:00.520Z,9.30
2017-10-23T17:25:28.024Z,12.70
2017-10-23T17:27:55.644Z,13.13
2017-10-23T17:30:23.225Z,10.60
2017-10-23T17:32:50.751Z,12.53
2017-10-23T17:35:18.444Z,9.90
2017-10-23T17:37:46.079Z,8.57
2017-10-23T17:40:13.569Z,9.57
2017-10-23T17:42:41.096Z,9.07
2017-10-23T17:45:08.596Z,9.03
2017-10-23T17:47:36.108Z,9.87
2017-10-23T17:50:03.794Z,9.00
2017-10-23T17:52:31.297Z,9.47
2017-10-23T17:54:58.893Z,9.97
2017-10-23T17:57:26.775Z,9.33
2017-10-23T17:59:54.540Z,9.37
2017-10-23T18:02:22.062Z,9.40
2017-10-23T18:04:49.572Z,10.53
2017-10-23T18:07:17.211Z,10.50
2017-10-23T18:09:44.724Z,9.63
2017-10-23T18:12:12.236Z,9.10
2017-10-23T18:14:39.911Z,10.07
2017-10-23T18:17:07.400Z,9.87
2017-10-23T18:19:35.133Z,10.00
2017-10-23T18:22:02.639Z,23.20
2017-10-23T18:24:30.148Z,15.47
2017-10-23T18:26:57.796Z,12.43
2017-10-23T18:29:25.357Z,15.40
2017-10-23T18:31:53.111Z,16.50
2017-10-23T18:34:20.749Z,13.67
2017-10-23T18:36:48.268Z,10.87
2017-10-23T18:39:15.773Z,12.10
2017-10-23T18:41:43.428Z,14.37
2017-10-23T18:44:11.218Z,40.40
2017-10-23T18:46:39.776Z,13.40
2017-10-23T18:49:07.291Z,15.07
2017-10-23T18:51:34.815Z,20.53
2017-10-23T18:54:02.311Z,18.80
2017-10-23T18:56:30.012Z,12.70
2017-10-23T18:58:57.519Z,18.73
2017-10-23T19:01:25.038Z,15.30
2017-10-23T19:03:52.712Z,12.73
2017-10-23T19:06:20.248Z,13.20
2017-10-23T19:08:47.752Z,15.07
2017-10-23T19:11:15.388Z,12.73
2017-10-23T19:13:42.904Z,12.27
2017-10-23T19:16:10.416Z,13.80
2017-10-23T19:18:37.942Z,13.20
2017-10-23T19:21:05.444Z,13.33
2017-10-23T19:23:32.963Z,13.67
2017-10-23T19:26:01.648Z,13.00
2017-10-23T19:28:29.160Z,13.50
2017-10-23T19:30:56.669Z,12.93
2017-10-23T19:33:25.181Z,11.77
2017-10-23T19:35:52.688Z,12.63
2017-10-23T19:38:20.900Z,13.17
2017-10-23T19:40:48.933Z,14.40
2017-10-23T19:43:16.619Z,13.13
2017-10-23T19:45:44.127Z,16.10
2017-10-23T19:48:11.804Z,43.17
2017-10-23T19:50:39.309Z,34.13
2017-10-23T19:53:07.056Z,26.87
2017-10-23T19:55:34.569Z,24.60
2017-10-23T19:58:02.084Z,19.97
2017-10-23T20:00:29.926Z,21.03
2017-10-23T20:02:57.807Z,16.27
2017-10-23T20:05:25.568Z,15.60
2017-10-23T20:07:53.491Z,18.30
2017-10-23T20:10:21.008Z,15.63
2017-10-23T20:12:48.525Z,15.80
2017-10-23T20:15:16.027Z,16.50
2017-10-23T20:17:43.539Z,14.67
2017-10-23T20:20:11.044Z,16.97
2017-10-23T20:22:38.648Z,16.57
2017-10-23T20:25:06.455Z,15.73
2017-10-23T20:27:34.192Z,16.40
2017-10-23T20:30:01.696Z,16.60
2017-10-23T20:32:29.212Z,15.60
2017-10-23T20:34:56.895Z,14.83
2017-10-23T20:37:24.399Z,16.70
2017-10-23T20:39:51.915Z,15.67
2017-10-23T20:42:19.872Z,16.83
2017-10-23T20:44:47.636Z,15.33
2017-10-23T20:47:15.403Z,15.10
2017-10-23T20:49:42.936Z,15.90
2017-10-23T20:52:10.584Z,17.07
2017-10-23T20:54:38.092Z,14.87
2017-10-23T20:57:05.613Z,17.37
2017-10-23T20:59:33.121Z,15.40
2017-10-23T21:02:00.640Z,16.17
2017-10-23T21:04:28.208Z,22.57
2017-10-23T21:06:55.720Z,26.23
2017-10-23T21:09:23.223Z,25.80
2017-10-23T21:11:50.799Z,18.13
2017-10-23T21:14:18.344Z,19.00
2017-10-23T21:16:45.856Z,17.47
2017-10-23T21:19:13.563Z,16.57
2017-10-23T21:21:41.340Z,17.03
2017-10-23T21:24:08.836Z,17.50
2017-10-23T21:26:36.356Z,18.53
2017-10-23T21:29:03.864Z,18.10
2017-10-23T21:31:31.448Z,17.00
2017-10-23T21:33:59.098Z,16.90
2017-10-23T21:36:26.861Z,17.57
2017-10-23T21:38:54.356Z,17.20
2017-10-23T21:41:21.863Z,14.60
2017-10-23T21:43:49.592Z,17.70
2017-10-23T21:49:11.300Z,15.70
2017-10-23T21:51:39.073Z,16.87
2017-10-23T21:54:06.583Z,15.80
2017-10-23T21:56:34.076Z,16.50
2017-10-23T21:59:01.628Z,16.30
2017-10-23T22:01:29.200Z,16.87
2017-10-23T22:03:56.837Z,17.43
2017-10-23T22:06:24.420Z,17.43
2017-10-23T22:08:51.932Z,17.97
2017-10-23T22:11:19.431Z,16.40
2017-10-23T22:13:46.952Z,18.37
2017-10-23T22:16:14.554Z,19.07
2017-10-23T22:18:42.055Z,17.73
2017-10-23T22:21:09.563Z,41.77
2017-10-23T22:23:37.198Z,23.93
2017-10-23T22:26:05.007Z,20.87
2017-10-23T22:28:32.751Z,23.67
2017-10-23T22:31:00.264Z,18.67
2017-10-23T22:33:27.952Z,20.60
2017-10-23T22:35:55.464Z,18.90
2017-10-23T22:38:23.196Z,25.90
2017-10-23T22:40:50.708Z,19.17
2017-10-23T22:43:18.232Z,17.50
2017-10-23T22:45:45.745Z,17.23
2017-10-23T22:48:13.341Z,17.73
2017-10-23T22:50:40.873Z,19.43
2017-10-23T22:53:08.360Z,20.60
2017-10-23T22:55:35.999Z,19.30
2017-10-23T22:58:03.515Z,18.40
2017-10-23T23:00:31.020Z,18.80
2017-10-23T23:02:58.529Z,20.00
2017-10-23T23:05:26.799Z,19.67
2017-10-23T23:07:54.517Z,21.70
2017-10-23T23:10:22.032Z,19.33
2017-10-23T23:12:49.536Z,19.83
2017-10-23T23:15:17.156Z,20.60
2017-10-23T23:17:44.827Z,21.57
2017-10-23T23:20:13.012Z,18.50
2017-10-23T23:22:40.515Z,21.03
2017-10-23T23:25:08.029Z,20.80
2017-10-23T23:27:35.672Z,19.80
2017-10-23T23:30:03.183Z,20.23
2017-10-23T23:32:30.688Z,19.80
2017-10-23T23:34:58.199Z,17.70
2017-10-23T23:37:25.761Z,18.73
2017-10-23T23:39:53.280Z,18.80
2017-10-23T23:42:20.779Z,20.67
2017-10-23T23:44:48.515Z,19.60
2017-10-23T23:47:16.020Z,19.93
2017-10-23T23:49:43.552Z,19.70
2017-10-23T23:52:11.080Z,19.57
2017-10-23T23:54:38.569Z,19.30
2017-10-23T23:57:06.894Z,19.50
2017-10-23T23:59:34.476Z,18.30
